createdAt,value
2022-10-24T00:01:30.943Z,15.60
2022-10-24T00:03:59.211Z,15.50
2022-10-24T00:06:27.105Z,15.60
2022-10-24T00:08:54.874Z,15.60
2022-10-24T00:11:24.739Z,15.60
2022-10-24T00:13:53.466Z,15.60
2022-10-24T00:16:22.807Z,15.70
2022-10-24T00:18:50.643Z,15.60
2022-10-24T00:21:18.775Z,15.50
2022-10-24T00:23:47.115Z,15.50
2022-10-24T00:26:16.610Z,15.50
2022-10-24T00:28:44.446Z,15.30
2022-10-24T00:31:15.501Z,15.20
2022-10-24T00:33:45.282Z,15.20
2022-10-24T00:36:13.619Z,15.10
2022-10-24T00:38:41.440Z,15.10
2022-10-24T00:41:14.960Z,15.00
2022-10-24T00:43:42.814Z,15.00
2022-10-24T00:46:10.638Z,15.00
2022-10-24T00:48:41.187Z,14.80
2022-10-24T00:51:17.427Z,14.80
2022-10-24T00:53:48.337Z,14.70
2022-10-24T00:56:19.094Z,14.70
2022-10-24T00:58:48.435Z,14.60
2022-10-24T01:01:16.887Z,14.60
2022-10-24T01:03:44.751Z,14.60
2022-10-24T01:06:27.785Z,14.50
2022-10-24T01:09:05.620Z,14.50
2022-10-24T01:11:44.838Z,14.50
2022-10-24T01:14:23.769Z,14.50
2022-10-24T01:16:55.555Z,14.40
2022-10-24T01:19:50.791Z,14.40
2022-10-24T01:22:24.093Z,14.40
2022-10-24T01:25:07.149Z,14.40
2022-10-24T01:27:56.955Z,14.30
2022-10-24T01:30:28.371Z,14.30
2022-10-24T01:33:01.818Z,14.30
2022-10-24T01:35:37.232Z,14.30
2022-10-24T01:38:12.167Z,14.30
2022-10-24T01:40:45.478Z,14.30
2022-10-24T01:43:16.262Z,14.20
2022-10-24T01:45:50.358Z,14.30
2022-10-24T01:48:22.658Z,14.30
2022-10-24T01:50:54.403Z,14.30
2022-10-24T01:53:25.112Z,14.30
2022-10-24T01:55:54.438Z,14.30
2022-10-24T01:58:22.327Z,14.30
2022-10-24T02:00:55.209Z,14.30
2022-10-24T02:03:28.307Z,14.30
2022-10-24T02:05:58.952Z,14.20
2022-10-24T02:08:31.180Z,14.30
2022-10-24T02:11:03.022Z,14.30
2022-10-24T02:13:36.182Z,14.20
2022-10-24T02:16:06.269Z,14.30
2022-10-24T02:18:35.019Z,14.30
2022-10-24T02:21:14.010Z,14.30
2022-10-24T02:23:47.999Z,14.20
2022-10-24T02:26:23.590Z,14.20
2022-10-24T02:28:55.527Z,14.20
2022-10-24T02:31:27.959Z,14.20
2022-10-24T02:33:57.033Z,14.20
2022-10-24T02:36:29.594Z,14.20
2022-10-24T02:38:58.707Z,14.20
2022-10-24T02:41:29.353Z,14.10
2022-10-24T02:43:58.571Z,14.10
2022-10-24T02:46:28.491Z,14.10
2022-10-24T02:48:59.928Z,14.10
2022-10-24T02:51:31.115Z,14.00
2022-10-24T02:54:00.694Z,14.00
2022-10-24T02:56:28.883Z,14.00
2022-10-24T02:58:56.753Z,14.00
2022-10-24T03:01:24.787Z,14.00
2022-10-24T03:03:53.995Z,14.00
2022-10-24T03:06:21.738Z,14.00
2022-10-24T03:08:49.488Z,14.00
2022-10-24T03:11:17.286Z,14.00
2022-10-24T03:13:45.086Z,14.00
2022-10-24T03:16:14.321Z,14.00
2022-10-24T03:18:42.269Z,14.00
2022-10-24T03:21:11.485Z,14.00
2022-10-24T03:23:39.323Z,14.00
2022-10-24T03:26:07.590Z,14.00
2022-10-24T03:28:35.451Z,14.00
2022-10-24T03:31:03.256Z,14.00
2022-10-24T03:33:31.014Z,14.00
2022-10-24T03:35:59.466Z,13.90
2022-10-24T03:38:28.929Z,13.90
2022-10-24T03:40:56.681Z,14.00
2022-10-24T03:43:24.464Z,14.00
2022-10-24T03:45:52.218Z,14.00
2022-10-24T03:48:20.188Z,13.90
2022-10-24T03:50:47.961Z,13.90
2022-10-24T03:53:15.775Z,13.90
2022-10-24T03:55:44.930Z,14.00
2022-10-24T03:58:12.689Z,13.90
2022-10-24T04:00:41.678Z,13.90
2022-10-24T04:03:10.721Z,13.90
2022-10-24T04:08:12.821Z,13.90
2022-10-24T04:10:40.578Z,13.90
2022-10-24T04:13:09.684Z,13.90
2022-10-24T04:15:37.471Z,13.90
2022-10-24T04:18:05.485Z,13.90
2022-10-24T04:20:33.290Z,13.90
2022-10-24T04:23:04.352Z,13.90
2022-10-24T04:25:32.438Z,13.90
2022-10-24T04:28:00.375Z,13.90
2022-10-24T04:30:30.028Z,13.90
2022-10-24T04:32:58.105Z,13.90
2022-10-24T04:35:26.519Z,13.90
2022-10-24T04:37:54.560Z,14.00
2022-10-24T04:40:22.355Z,14.00
2022-10-24T04:42:50.157Z,14.00
2022-10-24T04:45:18.459Z,14.00
2022-10-24T04:47:47.860Z,13.90
2022-10-24T04:50:15.757Z,14.00
2022-10-24T04:52:43.530Z,14.00
2022-10-24T04:55:11.260Z,14.00
2022-10-24T04:57:39.203Z,14.00
2022-10-24T05:00:08.554Z,14.00
2022-10-24T05:02:36.378Z,14.00
2022-10-24T05:05:06.374Z,14.00
2022-10-24T05:07:34.674Z,14.10
2022-10-24T05:10:02.472Z,14.10
2022-10-24T05:12:30.324Z,14.10
2022-10-24T05:14:58.189Z,14.10
2022-10-24T05:17:25.981Z,14.00
2022-10-24T05:19:53.959Z,14.00
2022-10-24T05:22:23.945Z,14.00
2022-10-24T05:24:51.925Z,14.10
2022-10-24T05:27:24.525Z,14.10
2022-10-24T05:29:52.557Z,14.10
2022-10-24T05:32:21.877Z,14.10
2022-10-24T05:34:49.684Z,14.20
2022-10-24T05:37:17.977Z,14.20
2022-10-24T05:39:47.129Z,14.20
2022-10-24T05:42:14.887Z,14.20
2022-10-24T05:44:42.738Z,14.20
2022-10-24T05:47:10.480Z,14.20
2022-10-24T05:49:38.526Z,14.30
2022-10-24T05:52:06.707Z,14.30
2022-10-24T05:54:48.416Z,14.20
2022-10-24T05:57:23.696Z,14.20
2022-10-24T05:59:51.446Z,14.30
2022-10-24T06:02:20.438Z,14.20
2022-10-24T06:04:50.561Z,14.30
2022-10-24T06:07:19.637Z,14.20
2022-10-24T06:09:47.715Z,14.30
2022-10-24T06:12:15.632Z,14.30
2022-10-24T06:14:45.571Z,14.30
2022-10-24T06:17:13.467Z,14.30
2022-10-24T06:19:41.665Z,14.30
2022-10-24T06:22:10.078Z,14.30
2022-10-24T06:24:38.797Z,14.30
2022-10-24T06:27:07.401Z,14.30
2022-10-24T06:29:35.512Z,14.30
2022-10-24T06:32:04.979Z,14.30
2022-10-24T06:34:32.943Z,14.30
2022-10-24T06:37:00.799Z,14.30
2022-10-24T06:39:28.970Z,14.30
2022-10-24T06:41:56.879Z,14.40
2022-10-24T06:44:24.638Z,14.40
2022-10-24T06:46:52.403Z,14.40
2022-10-24T06:49:21.639Z,14.40
2022-10-24T06:51:49.427Z,14.40
2022-10-24T06:54:17.344Z,14.40
2022-10-24T06:56:45.517Z,14.40
2022-10-24T06:59:16.437Z,14.40
2022-10-24T07:01:45.250Z,14.40
2022-10-24T07:04:13.651Z,14.40
2022-10-24T07:06:42.872Z,14.40
2022-10-24T07:09:15.298Z,14.40
2022-10-24T07:11:43.726Z,14.40
2022-10-24T07:14:11.832Z,14.40
2022-10-24T07:16:40.012Z,14.40
2022-10-24T07:19:08.665Z,14.40
2022-10-24T07:21:36.811Z,14.40
2022-10-24T07:24:07.195Z,14.50
2022-10-24T07:26:35.518Z,14.50
2022-10-24T07:29:03.696Z,14.50
2022-10-24T07:31:33.958Z,14.50
2022-10-24T07:34:03.167Z,14.50
2022-10-24T07:36:31.500Z,14.50
2022-10-24T07:38:59.790Z,14.50
2022-10-24T07:41:31.025Z,14.50
2022-10-24T07:43:59.163Z,14.50
2022-10-24T07:46:28.039Z,14.50
2022-10-24T07:48:55.892Z,14.50
2022-10-24T07:51:23.734Z,14.50
2022-10-24T07:53:51.506Z,14.50
2022-10-24T07:56:19.337Z,14.50
2022-10-24T07:58:48.733Z,14.50
2022-10-24T08:01:18.730Z,14.50
2022-10-24T08:03:46.910Z,14.50
2022-10-24T08:06:16.574Z,14.50
2022-10-24T08:08:44.858Z,14.50
2022-10-24T08:11:14.705Z,14.50
2022-10-24T08:13:43.211Z,14.50
2022-10-24T08:16:14.471Z,14.50
2022-10-24T08:18:42.351Z,14.50
2022-10-24T08:21:12.586Z,14.50
2022-10-24T08:23:43.353Z,14.50
2022-10-24T08:26:13.766Z,14.60
2022-10-24T08:28:42.040Z,14.60
2022-10-24T08:31:14.353Z,14.60
2022-10-24T08:33:42.732Z,14.60
2022-10-24T08:36:17.862Z,14.70
2022-10-24T08:38:45.639Z,14.80
2022-10-24T08:41:19.254Z,14.80
2022-10-24T08:43:47.005Z,14.90
2022-10-24T08:46:32.354Z,14.90
2022-10-24T08:49:05.572Z,14.90
2022-10-24T08:51:40.251Z,15.00
2022-10-24T08:54:13.939Z,15.00
2022-10-24T08:56:42.192Z,15.00
2022-10-24T08:59:13.290Z,15.00
2022-10-24T09:01:46.870Z,15.00
2022-10-24T09:04:18.155Z,15.00
2022-10-24T09:06:46.917Z,14.90
2022-10-24T09:09:21.798Z,14.90
2022-10-24T09:11:53.629Z,14.90
2022-10-24T09:14:24.038Z,14.90
2022-10-24T09:16:58.051Z,14.90
2022-10-24T09:19:28.598Z,14.90
2022-10-24T09:21:58.853Z,14.90
2022-10-24T09:24:40.313Z,15.00
2022-10-24T09:27:15.668Z,15.10
2022-10-24T09:29:43.782Z,15.10
2022-10-24T09:32:19.094Z,15.10
2022-10-24T09:34:47.084Z,15.10
2022-10-24T09:37:40.300Z,15.10
2022-10-24T09:40:20.352Z,15.10
2022-10-24T09:42:56.989Z,15.10
2022-10-24T09:45:35.778Z,15.10
2022-10-24T09:48:16.347Z,15.10
2022-10-24T09:50:45.721Z,15.10
2022-10-24T09:53:25.671Z,15.00
2022-10-24T09:55:55.967Z,15.00
2022-10-24T09:58:32.282Z,15.00
2022-10-24T10:01:03.403Z,15.00
2022-10-24T10:03:33.857Z,14.90
2022-10-24T10:06:06.018Z,14.90
2022-10-24T10:08:35.447Z,14.90
2022-10-24T10:11:07.276Z,14.90
2022-10-24T10:13:45.382Z,14.90
2022-10-24T10:16:23.344Z,14.80
2022-10-24T10:19:01.265Z,14.80
2022-10-24T10:21:49.211Z,14.80
2022-10-24T10:24:26.140Z,14.70
2022-10-24T10:26:53.902Z,14.80
2022-10-24T10:29:24.468Z,14.80
2022-10-24T10:32:00.101Z,14.70
2022-10-24T10:34:37.167Z,14.70
2022-10-24T10:37:26.012Z,14.70
2022-10-24T10:40:08.219Z,14.70
2022-10-24T10:42:42.170Z,14.80
2022-10-24T10:45:20.462Z,14.80
2022-10-24T10:48:01.083Z,14.80
2022-10-24T10:50:38.806Z,14.80
2022-10-24T10:53:21.423Z,14.80
2022-10-24T10:55:56.481Z,14.80
2022-10-24T10:58:35.211Z,14.70
2022-10-24T11:01:12.620Z,14.60
2022-10-24T11:03:46.488Z,14.70
2022-10-24T11:06:33.777Z,14.70
2022-10-24T11:09:25.027Z,14.60
2022-10-24T11:12:00.451Z,14.60
2022-10-24T11:14:32.387Z,14.60
2022-10-24T11:17:05.526Z,14.50
2022-10-24T11:19:44.438Z,14.40
2022-10-24T11:22:21.137Z,14.40
2022-10-24T11:24:56.688Z,14.40
2022-10-24T11:27:32.062Z,14.40
2022-10-24T11:30:05.415Z,14.30
2022-10-24T11:32:38.013Z,14.30
2022-10-24T11:35:14.940Z,14.30
2022-10-24T11:37:47.471Z,14.30
2022-10-24T11:40:19.563Z,14.20
2022-10-24T11:42:51.653Z,14.30
2022-10-24T11:45:22.143Z,14.20
2022-10-24T11:48:05.768Z,14.20
2022-10-24T11:50:41.215Z,14.20
2022-10-24T11:53:22.947Z,14.20
2022-10-24T11:55:57.210Z,14.10
2022-10-24T11:58:28.848Z,14.20
2022-10-24T12:01:30.502Z,14.20
2022-10-24T12:04:20.284Z,14.20
2022-10-24T12:07:08.860Z,14.20
2022-10-24T12:09:55.774Z,14.20
2022-10-24T12:12:38.430Z,14.20
2022-10-24T12:15:24.401Z,14.20
2022-10-24T12:18:12.459Z,14.20
2022-10-24T12:20:41.697Z,14.20
2022-10-24T12:23:20.635Z,14.20
2022-10-24T12:26:03.817Z,14.10
2022-10-24T12:28:32.164Z,14.10
2022-10-24T12:31:12.929Z,14.10
2022-10-24T12:33:40.893Z,14.10
2022-10-24T12:36:09.120Z,14.10
2022-10-24T12:39:09.396Z,14.10
2022-10-24T12:41:43.461Z,14.20
2022-10-24T12:44:52.163Z,14.10
2022-10-24T12:47:29.705Z,14.10
2022-10-24T12:49:58.060Z,14.10
2022-10-24T12:52:51.528Z,14.10
2022-10-24T12:55:48.187Z,14.10
2022-10-24T12:58:24.674Z,14.10
2022-10-24T13:00:56.661Z,14.10
2022-10-24T13:03:39.997Z,14.10
2022-10-24T13:06:13.523Z,14.20
2022-10-24T13:09:09.978Z,14.20
2022-10-24T13:11:54.108Z,14.20
2022-10-24T13:14:48.885Z,14.20
2022-10-24T13:17:24.115Z,14.20
2022-10-24T13:20:07.409Z,14.20
2022-10-24T13:22:38.134Z,14.20
2022-10-24T13:25:33.511Z,14.20
2022-10-24T13:28:40.314Z,14.20
2022-10-24T13:31:48.024Z,14.20
2022-10-24T13:34:22.801Z,14.10
2022-10-24T13:36:54.467Z,14.10
2022-10-24T13:39:28.591Z,14.10
2022-10-24T13:42:02.642Z,14.20
2022-10-24T13:44:38.060Z,14.20
2022-10-24T13:47:17.589Z,14.20
2022-10-24T13:49:53.000Z,14.20
2022-10-24T13:52:25.916Z,14.10
2022-10-24T13:54:58.980Z,14.20
2022-10-24T13:57:33.644Z,14.20
2022-10-24T14:00:03.149Z,14.20
2022-10-24T14:02:35.520Z,14.20
2022-10-24T14:05:05.346Z,14.20
2022-10-24T14:07:34.580Z,14.20
2022-10-24T14:10:07.783Z,14.10
2022-10-24T14:12:36.754Z,14.10
2022-10-24T14:15:06.381Z,14.10
2022-10-24T14:17:35.847Z,14.00
2022-10-24T14:20:20.575Z,14.00
2022-10-24T14:22:48.778Z,14.00
2022-10-24T14:25:28.151Z,14.00
2022-10-24T14:27:58.686Z,14.00
2022-10-24T14:30:33.568Z,13.90
2022-10-24T14:33:21.957Z,13.90
2022-10-24T14:35:52.359Z,13.90
2022-10-24T14:38:23.678Z,13.90
2022-10-24T14:41:06.334Z,13.90
2022-10-24T14:43:40.101Z,13.90
2022-10-24T14:46:26.011Z,13.90
2022-10-24T14:48:56.135Z,13.90
2022-10-24T14:51:28.972Z,13.80
2022-10-24T14:53:57.906Z,13.90
2022-10-24T14:56:28.215Z,13.90
2022-10-24T14:58:58.087Z,13.90
2022-10-24T15:01:26.682Z,13.80
2022-10-24T15:03:58.278Z,13.80
2022-10-24T15:06:28.559Z,13.80
2022-10-24T15:09:04.873Z,13.80
2022-10-24T15:11:40.201Z,13.80
2022-10-24T15:14:32.582Z,13.80
2022-10-24T15:17:03.054Z,13.70
2022-10-24T15:19:38.678Z,13.70
2022-10-24T15:22:06.536Z,13.70
2022-10-24T15:24:34.333Z,13.70
2022-10-24T15:27:13.959Z,13.60
2022-10-24T15:29:42.067Z,13.70
2022-10-24T15:32:11.478Z,13.70
2022-10-24T15:34:40.640Z,13.70
2022-10-24T15:37:21.626Z,13.60
2022-10-24T15:39:49.831Z,13.60
2022-10-24T15:42:20.182Z,13.60
2022-10-24T15:44:50.879Z,13.60
2022-10-24T15:47:23.614Z,13.50
2022-10-24T15:49:52.751Z,13.60
2022-10-24T15:52:20.530Z,13.50
2022-10-24T15:54:48.330Z,13.60
2022-10-24T15:57:18.749Z,13.50
2022-10-24T15:59:46.556Z,13.50
2022-10-24T16:02:20.659Z,13.40
2022-10-24T16:04:48.619Z,13.40
2022-10-24T16:07:18.061Z,13.40
2022-10-24T16:09:45.836Z,13.40
2022-10-24T16:12:13.959Z,13.40
2022-10-24T16:14:41.731Z,13.30
2022-10-24T16:17:09.883Z,13.20
2022-10-24T16:19:37.670Z,13.20
2022-10-24T16:22:07.456Z,13.20
2022-10-24T16:24:36.598Z,13.20
2022-10-24T16:27:04.468Z,13.20
2022-10-24T16:29:32.229Z,13.20
2022-10-24T16:32:00.010Z,13.20
2022-10-24T16:34:27.781Z,13.20
2022-10-24T16:36:55.606Z,13.10
2022-10-24T16:39:24.060Z,13.10
2022-10-24T16:41:57.622Z,13.10
2022-10-24T16:44:27.123Z,13.10
2022-10-24T16:46:54.939Z,13.10
2022-10-24T16:49:23.490Z,13.00
2022-10-24T16:51:51.274Z,13.10
2022-10-24T16:54:20.467Z,13.00
2022-10-24T16:56:53.178Z,13.10
2022-10-24T16:59:22.939Z,13.00
2022-10-24T17:01:50.937Z,13.00
2022-10-24T17:04:18.792Z,13.00
2022-10-24T17:06:46.634Z,13.00
2022-10-24T17:09:14.630Z,13.00
2022-10-24T17:11:46.471Z,13.00
2022-10-24T17:14:15.023Z,13.00
2022-10-24T17:16:44.844Z,13.00
2022-10-24T17:19:16.115Z,12.90
2022-10-24T17:21:46.680Z,12.90
2022-10-24T17:24:15.718Z,12.90
2022-10-24T17:26:44.199Z,12.90
2022-10-24T17:29:15.931Z,12.90
2022-10-24T17:31:45.352Z,12.90
2022-10-24T17:34:13.302Z,12.80
2022-10-24T17:36:42.758Z,12.80
2022-10-24T17:39:13.371Z,12.80
2022-10-24T17:41:42.210Z,12.80
2022-10-24T17:44:15.738Z,12.80
2022-10-24T17:46:45.290Z,12.80
2022-10-24T17:49:16.474Z,12.80
2022-10-24T17:51:48.274Z,12.80
2022-10-24T17:54:16.532Z,12.90
2022-10-24T17:56:44.554Z,12.90
2022-10-24T17:59:12.387Z,12.90
2022-10-24T18:01:40.229Z,12.80
2022-10-24T18:04:09.451Z,12.80
2022-10-24T18:06:40.772Z,12.80
2022-10-24T18:09:11.092Z,12.80
2022-10-24T18:11:39.895Z,12.80
2022-10-24T18:14:08.146Z,12.80
2022-10-24T18:16:36.991Z,12.80
2022-10-24T18:19:04.791Z,12.80
2022-10-24T18:21:34.213Z,12.80
2022-10-24T18:24:01.991Z,12.70
2022-10-24T18:26:29.759Z,12.70
2022-10-24T18:28:57.962Z,12.70
2022-10-24T18:31:28.790Z,12.70
2022-10-24T18:33:59.067Z,12.70
2022-10-24T18:36:29.496Z,12.60
2022-10-24T18:38:59.656Z,12.60
2022-10-24T18:41:41.259Z,12.60
2022-10-24T18:44:23.041Z,12.60
2022-10-24T18:46:52.002Z,12.60
2022-10-24T18:49:20.630Z,12.70
2022-10-24T18:51:53.376Z,12.70
2022-10-24T18:54:23.164Z,12.60
2022-10-24T18:56:51.258Z,12.60
2022-10-24T18:59:21.926Z,12.60
2022-10-24T19:02:02.664Z,12.60
2022-10-24T19:04:30.771Z,12.60
2022-10-24T19:07:01.479Z,12.60
2022-10-24T19:09:31.104Z,12.60
2022-10-24T19:11:59.130Z,12.60
2022-10-24T19:14:27.907Z,12.70
2022-10-24T19:16:58.084Z,12.70
2022-10-24T19:19:29.023Z,12.60
2022-10-24T19:21:57.029Z,12.60
2022-10-24T19:24:24.911Z,12.60
2022-10-24T19:26:54.068Z,12.60
2022-10-24T19:29:21.815Z,12.50
2022-10-24T19:31:49.655Z,12.50
2022-10-24T19:34:17.454Z,12.50
2022-10-24T19:36:45.210Z,12.50
2022-10-24T19:39:12.964Z,12.40
2022-10-24T19:41:40.743Z,12.40
2022-10-24T19:44:09.855Z,12.50
2022-10-24T19:46:37.659Z,12.40
2022-10-24T19:49:05.699Z,12.40
2022-10-24T19:51:33.445Z,12.40
2022-10-24T19:54:01.916Z,12.40
2022-10-24T19:56:31.273Z,12.50
2022-10-24T19:58:59.027Z,12.50
2022-10-24T20:01:30.859Z,12.40
2022-10-24T20:04:01.056Z,12.40
2022-10-24T20:06:28.798Z,12.40
2022-10-24T20:08:56.687Z,12.40
2022-10-24T20:11:24.433Z,12.30
2022-10-24T20:13:52.235Z,12.30
2022-10-24T20:16:20.360Z,12.30
2022-10-24T20:18:49.603Z,12.30
2022-10-24T20:21:19.212Z,12.30
2022-10-24T20:23:48.120Z,12.30
2022-10-24T20:26:17.827Z,12.30
2022-10-24T20:28:47.183Z,12.30
2022-10-24T20:31:23.068Z,12.30
2022-10-24T20:33:52.479Z,12.30
2022-10-24T20:36:21.597Z,12.20
2022-10-24T20:38:49.371Z,12.20
2022-10-24T20:41:17.199Z,12.10
2022-10-24T20:43:45.019Z,12.10
2022-10-24T20:46:12.972Z,12.10
2022-10-24T20:48:40.874Z,12.00
2022-10-24T20:51:11.923Z,12.00
2022-10-24T20:53:40.661Z,11.90
2022-10-24T20:56:10.679Z,11.80
2022-10-24T20:58:39.718Z,11.80
2022-10-24T21:01:09.193Z,11.70
2022-10-24T21:03:37.610Z,11.60
2022-10-24T21:06:06.906Z,11.60
2022-10-24T21:08:36.203Z,11.60
2022-10-24T21:11:07.007Z,11.70
2022-10-24T21:13:35.051Z,11.70
2022-10-24T21:16:03.091Z,11.60
2022-10-24T21:18:30.840Z,11.70
2022-10-24T21:20:58.650Z,11.70
2022-10-24T21:23:26.467Z,11.70
2022-10-24T21:26:03.866Z,11.70
2022-10-24T21:28:31.653Z,11.70
2022-10-24T21:31:04.293Z,11.60
2022-10-24T21:33:32.403Z,11.50
2022-10-24T21:36:00.584Z,11.60
2022-10-24T21:38:28.340Z,11.60
2022-10-24T21:41:02.863Z,11.60
2022-10-24T21:43:32.463Z,11.60
2022-10-24T21:46:05.191Z,11.60
2022-10-24T21:48:33.306Z,11.60
2022-10-24T21:51:06.523Z,11.60
2022-10-24T21:53:37.744Z,11.60
2022-10-24T21:56:09.107Z,11.60
2022-10-24T21:58:37.526Z,11.50
2022-10-24T22:01:11.870Z,11.60
2022-10-24T22:03:40.068Z,11.60
2022-10-24T22:06:07.895Z,11.60
2022-10-24T22:08:35.713Z,11.60
2022-10-24T22:11:05.655Z,11.50
2022-10-24T22:13:35.402Z,11.60
2022-10-24T22:16:03.698Z,11.50
2022-10-24T22:18:33.458Z,11.60
2022-10-24T22:21:03.106Z,11.50
2022-10-24T22:23:31.234Z,11.60
2022-10-24T22:26:01.078Z,11.60
2022-10-24T22:28:29.560Z,11.70
2022-10-24T22:30:59.263Z,11.70
2022-10-24T22:33:33.451Z,11.70
2022-10-24T22:36:05.445Z,11.70
2022-10-24T22:38:33.433Z,11.70
2022-10-24T22:41:01.616Z,11.60
2022-10-24T22:43:29.938Z,11.60
2022-10-24T22:46:08.039Z,11.50
2022-10-24T22:48:38.727Z,11.40
2022-10-24T22:51:06.941Z,11.40
2022-10-24T22:53:35.891Z,11.30
2022-10-24T22:56:13.665Z,11.20
2022-10-24T22:58:43.738Z,11.10
2022-10-24T23:01:23.623Z,11.10
2022-10-24T23:04:01.798Z,11.10
2022-10-24T23:06:36.070Z,11.10
2022-10-24T23:09:04.016Z,11.00
2022-10-24T23:11:32.332Z,11.00
2022-10-24T23:14:00.530Z,11.00
2022-10-24T23:16:35.099Z,10.90
2022-10-24T23:19:06.970Z,10.80
2022-10-24T23:21:40.671Z,10.90
2022-10-24T23:24:16.570Z,10.80
2022-10-24T23:26:53.242Z,10.70
2022-10-24T23:29:27.749Z,10.70
2022-10-24T23:31:57.632Z,10.70
2022-10-24T23:34:26.216Z,10.80
2022-10-24T23:36:58.194Z,10.70
2022-10-24T23:39:30.939Z,10.70
2022-10-24T23:41:59.318Z,10.70
2022-10-24T23:44:27.651Z,10.80
2022-10-24T23:47:01.351Z,10.80
2022-10-24T23:49:35.361Z,10.80
2022-10-24T23:52:13.006Z,10.80
2022-10-24T23:54:41.409Z,10.80
2022-10-24T23:57:17.120Z,10.80
2022-10-24T23:59:45.122Z,10.70
